createdAt,value
2019-03-01T00:00:03.858Z,1009.60
2019-03-01T00:01:02.847Z,1009.60
2019-03-01T00:02:02.829Z,1009.58
2019-03-01T00:03:02.805Z,1009.56
2019-03-01T00:04:02.805Z,1009.55
2019-03-01T00:05:03.367Z,1009.56
2019-03-01T00:06:02.750Z,1009.57
2019-03-01T00:07:02.727Z,1009.55
2019-03-01T00:08:02.713Z,1009.57
2019-03-01T00:09:02.695Z,1009.56
2019-03-01T00:10:02.685Z,1009.55
2019-03-01T00:11:02.667Z,1009.56
2019-03-01T00:12:02.627Z,1009.54
2019-03-01T00:13:02.615Z,1009.55
2019-03-01T00:14:02.588Z,1009.57
2019-03-01T00:15:02.572Z,1009.56
2019-03-01T00:16:02.563Z,1009.59
2019-03-01T00:17:02.550Z,1009.58
2019-03-01T00:18:02.517Z,1009.51
2019-03-01T00:19:02.493Z,1009.53
2019-03-01T00:20:02.474Z,1009.49
2019-03-01T00:21:02.459Z,1009.49
2019-03-01T00:22:02.438Z,1009.50
2019-03-01T00:23:02.438Z,1009.53
2019-03-01T00:24:02.394Z,1009.48
2019-03-01T00:25:02.377Z,1009.48
2019-03-01T00:26:02.363Z,1009.45
2019-03-01T00:27:02.331Z,1009.45
2019-03-01T00:28:02.315Z,1009.43
2019-03-01T00:29:02.313Z,1009.43
2019-03-01T00:30:02.281Z,1009.44
2019-03-01T00:31:02.257Z,1009.47
2019-03-01T00:32:02.239Z,1009.40
2019-03-01T00:33:02.247Z,1009.45
2019-03-01T00:34:02.206Z,1009.47
2019-03-01T00:35:02.184Z,1009.39
2019-03-01T00:36:02.160Z,1009.44
2019-03-01T00:37:02.140Z,1009.40
2019-03-01T00:38:02.119Z,1009.36
2019-03-01T00:39:02.120Z,1009.38
2019-03-01T00:40:02.090Z,1009.38
2019-03-01T00:41:02.072Z,1009.39
2019-03-01T00:42:02.061Z,1009.30
2019-03-01T00:43:02.028Z,1009.27
2019-03-01T00:44:02.006Z,1009.32
2019-03-01T00:45:02.009Z,1009.26
2019-03-01T00:46:01.994Z,1009.23
2019-03-01T00:47:01.945Z,1009.23
2019-03-01T00:48:01.923Z,1009.23
2019-03-01T00:49:01.905Z,1009.22
2019-03-01T00:50:01.904Z,1009.19
2019-03-01T00:51:01.866Z,1009.22
2019-03-01T00:52:01.862Z,1009.18
2019-03-01T00:53:01.830Z,1009.16
2019-03-01T00:54:01.808Z,1009.16
2019-03-01T00:55:01.786Z,1009.18
2019-03-01T00:56:01.769Z,1009.14
2019-03-01T00:57:01.766Z,1009.10
2019-03-01T00:58:01.746Z,1009.09
2019-03-01T00:59:01.708Z,1009.11
2019-03-01T01:00:01.685Z,1009.11
2019-03-01T01:01:01.670Z,1009.10
2019-03-01T01:02:01.651Z,1009.10
2019-03-01T01:03:01.652Z,1009.07
2019-03-01T01:04:01.611Z,1009.06
2019-03-01T01:05:01.589Z,1009.05
2019-03-01T01:06:01.576Z,1009.05
2019-03-01T01:07:01.556Z,1009.02
2019-03-01T01:08:01.549Z,1009.04
2019-03-01T01:09:02.346Z,1009.02
2019-03-01T01:10:01.583Z,1009.00
2019-03-01T01:11:01.471Z,1009.00
2019-03-01T01:12:02.396Z,1008.97
2019-03-01T01:13:01.446Z,1008.98
2019-03-01T01:14:01.431Z,1008.93
2019-03-01T01:15:01.395Z,1008.94
2019-03-01T01:16:01.372Z,1008.92
2019-03-01T01:17:01.355Z,1008.94
2019-03-01T01:18:01.338Z,1008.92
2019-03-01T01:19:01.338Z,1008.88
2019-03-01T01:20:01.310Z,1008.92
2019-03-01T01:21:01.279Z,1008.90
2019-03-01T01:22:01.259Z,1008.85
2019-03-01T01:23:01.239Z,1008.88
2019-03-01T01:24:01.221Z,1008.86
2019-03-01T01:25:01.218Z,1008.83
2019-03-01T01:26:01.177Z,1008.81
2019-03-01T01:27:01.157Z,1008.83
2019-03-01T01:28:01.144Z,1008.80
2019-03-01T01:29:01.153Z,1008.79
2019-03-01T01:30:01.106Z,1008.78
2019-03-01T01:31:01.094Z,1008.73
2019-03-01T01:32:01.062Z,1008.73
2019-03-01T01:33:01.039Z,1008.73
2019-03-01T01:34:01.019Z,1008.73
2019-03-01T01:35:01.022Z,1008.75
2019-03-01T01:36:00.983Z,1008.70
2019-03-01T01:37:00.961Z,1008.72
2019-03-01T01:38:00.945Z,1008.75
2019-03-01T01:39:00.923Z,1008.68
2019-03-01T01:40:00.929Z,1008.69
2019-03-01T01:41:00.903Z,1008.72
2019-03-01T01:42:00.868Z,1008.66
2019-03-01T01:43:00.864Z,1008.72
2019-03-01T01:44:00.824Z,1008.71
2019-03-01T01:45:00.808Z,1008.68
2019-03-01T01:46:00.802Z,1008.68
2019-03-01T01:47:00.789Z,1008.66
2019-03-01T01:48:00.743Z,1008.63
2019-03-01T01:49:00.726Z,1008.64
2019-03-01T01:50:00.709Z,1008.62
2019-03-01T01:51:00.687Z,1008.57
2019-03-01T01:52:00.693Z,1008.62
2019-03-01T01:53:00.651Z,1008.58
2019-03-01T01:54:00.629Z,1008.64
2019-03-01T01:55:00.625Z,1008.62
2019-03-01T01:56:00.588Z,1008.61
2019-03-01T01:57:00.567Z,1008.54
2019-03-01T01:58:00.549Z,1008.59
2019-03-01T01:59:00.530Z,1008.58
2019-03-01T02:00:00.530Z,1008.58
2019-03-01T02:01:00.509Z,1008.61
2019-03-01T02:02:01.394Z,1008.53
2019-03-01T02:03:01.353Z,1008.59
2019-03-01T02:04:00.436Z,1008.56
2019-03-01T02:05:00.411Z,1008.59
2019-03-01T02:06:00.411Z,1008.55
2019-03-01T02:07:00.929Z,1008.59
2019-03-01T02:08:00.348Z,1008.57
2019-03-01T02:09:00.334Z,1008.56
2019-03-01T02:10:00.361Z,1008.54
2019-03-01T02:11:00.295Z,1008.55
2019-03-01T02:12:00.292Z,1008.53
2019-03-01T02:13:00.250Z,1008.54
2019-03-01T02:14:00.235Z,1008.52
2019-03-01T02:15:00.325Z,1008.53
2019-03-01T02:16:00.199Z,1008.52
2019-03-01T02:17:00.189Z,1008.49
2019-03-01T02:18:00.151Z,1008.50
2019-03-01T02:19:00.140Z,1008.50
2019-03-01T02:20:00.287Z,1008.48
2019-03-01T02:21:00.092Z,1008.49
2019-03-01T02:22:00.097Z,1008.47
2019-03-01T02:23:00.057Z,1008.43
2019-03-01T02:24:00.035Z,1008.43
2019-03-01T02:25:00.017Z,1008.43
2019-03-01T02:25:59.996Z,1008.40
2019-03-01T02:26:59.977Z,1008.37
2019-03-01T02:27:59.973Z,1008.36
2019-03-01T02:28:59.960Z,1008.35
2019-03-01T02:29:59.919Z,1008.39
2019-03-01T02:30:59.899Z,1008.34
2019-03-01T02:31:59.882Z,1008.35
2019-03-01T02:32:59.857Z,1008.34
2019-03-01T02:33:59.864Z,1008.31
2019-03-01T02:34:59.824Z,1008.33
2019-03-01T02:35:59.824Z,1008.30
2019-03-01T02:36:59.784Z,1008.32
2019-03-01T02:38:00.862Z,1008.29
2019-03-01T02:38:59.744Z,1008.29
2019-03-01T02:39:59.726Z,1008.29
2019-03-01T02:40:59.722Z,1008.33
2019-03-01T02:41:59.691Z,1008.30
2019-03-01T02:42:59.680Z,1008.29
2019-03-01T02:43:59.645Z,1008.29
2019-03-01T02:44:59.626Z,1008.29
2019-03-01T02:45:59.604Z,1008.28
2019-03-01T02:46:59.582Z,1008.29
2019-03-01T02:47:59.580Z,1008.29
2019-03-01T02:48:59.551Z,1008.26
2019-03-01T02:49:59.526Z,1008.24
2019-03-01T02:50:59.511Z,1008.22
2019-03-01T02:51:59.487Z,1008.23
2019-03-01T02:52:59.482Z,1008.23
2019-03-01T02:54:00.362Z,1008.22
2019-03-01T02:54:59.430Z,1008.21
2019-03-01T02:55:59.420Z,1008.18
2019-03-01T02:56:59.403Z,1008.17
2019-03-01T02:57:59.373Z,1008.13
2019-03-01T02:58:59.346Z,1008.16
2019-03-01T02:59:59.346Z,1008.13
2019-03-01T03:00:59.316Z,1008.14
2019-03-01T03:01:59.305Z,1008.12
2019-03-01T03:02:59.264Z,1008.11
2019-03-01T03:03:59.250Z,1008.13
2019-03-01T03:04:59.227Z,1008.08
2019-03-01T03:05:59.230Z,1008.11
2019-03-01T03:06:59.186Z,1008.08
2019-03-01T03:07:59.171Z,1008.07
2019-03-01T03:08:59.150Z,1008.04
2019-03-01T03:09:59.134Z,1008.03
2019-03-01T03:10:59.134Z,1008.02
2019-03-01T03:11:59.090Z,1007.99
2019-03-01T03:12:59.079Z,1008.02
2019-03-01T03:13:59.864Z,1008.01
2019-03-01T03:14:59.034Z,1007.97
2019-03-01T03:15:59.014Z,1008.04
2019-03-01T03:16:59.951Z,1007.99
2019-03-01T03:17:58.974Z,1007.99
2019-03-01T03:18:59.908Z,1007.99
2019-03-01T03:19:58.938Z,1007.98
2019-03-01T03:20:58.918Z,1007.98
2019-03-01T03:21:59.404Z,1007.95
2019-03-01T03:22:58.887Z,1007.95
2019-03-01T03:23:59.384Z,1007.93
2019-03-01T03:24:58.833Z,1007.91
2019-03-01T03:25:58.813Z,1007.94
2019-03-01T03:26:58.828Z,1007.94
2019-03-01T03:27:58.793Z,1007.92
2019-03-01T03:28:59.407Z,1007.91
2019-03-01T03:29:58.775Z,1007.92
2019-03-01T03:30:58.719Z,1007.92
2019-03-01T03:31:58.781Z,1007.93
2019-03-01T03:32:58.689Z,1007.98
2019-03-01T03:33:58.685Z,1007.98
2019-03-01T03:34:58.658Z,1008.00
2019-03-01T03:35:58.616Z,1007.99
2019-03-01T03:36:58.602Z,1007.99
2019-03-01T03:37:58.585Z,1007.99
2019-03-01T03:38:58.587Z,1008.01
2019-03-01T03:39:58.543Z,1007.94
2019-03-01T03:40:58.525Z,1007.96
2019-03-01T03:41:59.376Z,1007.95
2019-03-01T03:42:58.481Z,1007.91
2019-03-01T03:43:58.465Z,1007.93
2019-03-01T03:44:58.458Z,1007.90
2019-03-01T03:45:58.440Z,1007.90
2019-03-01T03:46:58.415Z,1007.88
2019-03-01T03:47:58.396Z,1007.87
2019-03-01T03:48:58.386Z,1007.87
2019-03-01T03:49:58.357Z,1007.85
2019-03-01T03:50:58.328Z,1007.87
2019-03-01T03:51:58.324Z,1007.84
2019-03-01T03:52:58.327Z,1007.87
2019-03-01T03:53:58.272Z,1007.86
2019-03-01T03:54:58.942Z,1007.87
2019-03-01T03:55:58.238Z,1007.92
2019-03-01T03:56:58.231Z,1007.89
2019-03-01T03:57:58.191Z,1007.88
2019-03-01T03:58:58.170Z,1007.91
2019-03-01T03:59:58.147Z,1007.89
2019-03-01T04:00:58.142Z,1007.89
2019-03-01T04:01:58.219Z,1007.88
2019-03-01T04:02:58.106Z,1007.90
2019-03-01T04:03:58.082Z,1007.90
2019-03-01T04:04:58.056Z,1007.90
2019-03-01T04:05:58.037Z,1007.87
2019-03-01T04:06:58.013Z,1007.87
2019-03-01T04:07:58.009Z,1007.89
2019-03-01T04:08:58.010Z,1007.88
2019-03-01T04:09:57.958Z,1007.88
2019-03-01T04:10:57.936Z,1007.88
2019-03-01T04:11:57.937Z,1007.88
2019-03-01T04:12:57.900Z,1007.89
2019-03-01T04:13:57.906Z,1007.86
2019-03-01T04:14:57.856Z,1007.89
2019-03-01T04:15:58.445Z,1007.85
2019-03-01T04:16:57.816Z,1007.86
2019-03-01T04:17:57.818Z,1007.87
2019-03-01T04:18:57.782Z,1007.87
2019-03-01T04:19:57.761Z,1007.83
2019-03-01T04:20:57.750Z,1007.82
2019-03-01T04:21:57.737Z,1007.85
2019-03-01T04:22:57.701Z,1007.88
2019-03-01T04:23:57.691Z,1007.89
2019-03-01T04:24:57.684Z,1007.93
2019-03-01T04:25:57.645Z,1007.92
2019-03-01T04:26:57.628Z,1007.89
2019-03-01T04:27:57.606Z,1007.87
2019-03-01T04:28:57.585Z,1007.86
2019-03-01T04:29:57.612Z,1007.88
2019-03-01T04:30:57.553Z,1007.92
2019-03-01T04:31:57.527Z,1007.92
2019-03-01T04:32:57.518Z,1007.93
2019-03-01T04:33:57.494Z,1007.93
2019-03-01T04:34:57.472Z,1007.90
2019-03-01T04:35:57.466Z,1007.90
2019-03-01T04:36:57.430Z,1007.91
2019-03-01T04:37:57.420Z,1007.92
2019-03-01T04:38:57.388Z,1007.93
2019-03-01T04:39:57.373Z,1007.93
2019-03-01T04:40:57.432Z,1007.96
2019-03-01T04:41:58.379Z,1007.89
2019-03-01T04:42:57.317Z,1007.88
2019-03-01T04:43:57.301Z,1007.85
2019-03-01T04:44:57.272Z,1007.86
2019-03-01T04:45:57.261Z,1007.84
2019-03-01T04:46:57.262Z,1007.82
2019-03-01T04:47:57.233Z,1007.83
2019-03-01T04:48:57.202Z,1007.82
2019-03-01T04:49:57.175Z,1007.82
2019-03-01T04:50:57.158Z,1007.81
2019-03-01T04:51:57.897Z,1007.80
2019-03-01T04:52:57.127Z,1007.75
2019-03-01T04:53:57.109Z,1007.77
2019-03-01T04:54:57.079Z,1007.81
2019-03-01T04:55:57.063Z,1007.78
2019-03-01T04:56:57.044Z,1007.78
2019-03-01T04:57:57.038Z,1007.80
2019-03-01T04:58:57.001Z,1007.79
2019-03-01T04:59:56.982Z,1007.78
2019-03-01T05:00:56.968Z,1007.77
2019-03-01T05:01:56.945Z,1007.76
2019-03-01T05:02:56.944Z,1007.76
2019-03-01T05:03:56.906Z,1007.71
2019-03-01T05:04:56.892Z,1007.72
2019-03-01T05:05:56.884Z,1007.74
2019-03-01T05:06:56.849Z,1007.73
2019-03-01T05:07:56.899Z,1007.75
2019-03-01T05:08:56.807Z,1007.78
2019-03-01T05:09:56.790Z,1007.77
2019-03-01T05:10:56.802Z,1007.79
2019-03-01T05:11:57.424Z,1007.78
2019-03-01T05:12:56.728Z,1007.76
2019-03-01T05:13:56.719Z,1007.76
2019-03-01T05:14:57.385Z,1007.79
2019-03-01T05:15:56.711Z,1007.80
2019-03-01T05:16:56.656Z,1007.81
2019-03-01T05:17:56.649Z,1007.81
2019-03-01T05:18:56.629Z,1007.85
2019-03-01T05:19:56.594Z,1007.84
2019-03-01T05:20:56.592Z,1007.83
2019-03-01T05:21:56.555Z,1007.84
2019-03-01T05:22:56.533Z,1007.86
2019-03-01T05:23:56.519Z,1007.90
2019-03-01T05:24:56.494Z,1007.90
2019-03-01T05:25:56.497Z,1007.90
2019-03-01T05:26:56.457Z,1007.91
2019-03-01T05:27:56.438Z,1007.94
2019-03-01T05:28:56.423Z,1007.93
2019-03-01T05:29:56.403Z,1007.93
2019-03-01T05:30:56.382Z,1007.95
2019-03-01T05:31:56.378Z,1007.95
2019-03-01T05:32:56.887Z,1007.96
2019-03-01T05:33:56.319Z,1007.97
2019-03-01T05:34:56.303Z,1007.97
2019-03-01T05:35:56.292Z,1007.97
2019-03-01T05:36:56.276Z,1007.99
2019-03-01T05:37:56.263Z,1008.02
2019-03-01T05:38:56.232Z,1008.01
2019-03-01T05:39:56.204Z,1008.03
2019-03-01T05:40:56.187Z,1008.03
2019-03-01T05:41:56.195Z,1008.03
2019-03-01T05:42:56.166Z,1008.07
2019-03-01T05:43:56.126Z,1008.10
2019-03-01T05:44:56.110Z,1008.06
2019-03-01T05:45:56.092Z,1008.07
2019-03-01T05:46:56.073Z,1008.09
2019-03-01T05:47:56.057Z,1008.15
2019-03-01T05:48:56.048Z,1008.13
2019-03-01T05:49:56.012Z,1008.11
2019-03-01T05:50:55.993Z,1008.17
2019-03-01T05:51:55.974Z,1008.16
2019-03-01T05:52:55.956Z,1008.20
2019-03-01T05:53:55.948Z,1008.18
2019-03-01T05:54:55.914Z,1008.18
2019-03-01T05:55:55.899Z,1008.20
2019-03-01T05:56:55.881Z,1008.21
2019-03-01T05:57:55.864Z,1008.20
2019-03-01T05:58:56.892Z,1008.20
2019-03-01T05:59:55.821Z,1008.22
2019-03-01T06:00:55.795Z,1008.23
2019-03-01T06:01:55.782Z,1008.23
2019-03-01T06:02:55.767Z,1008.21
2019-03-01T06:03:55.740Z,1008.21
2019-03-01T06:04:55.746Z,1008.23
2019-03-01T06:05:55.701Z,1008.24
2019-03-01T06:06:55.680Z,1008.29
2019-03-01T06:07:55.662Z,1008.27
2019-03-01T06:08:55.654Z,1008.29
2019-03-01T06:09:55.651Z,1008.30
2019-03-01T06:10:55.620Z,1008.28
2019-03-01T06:11:55.579Z,1008.32
2019-03-01T06:12:55.563Z,1008.33
2019-03-01T06:13:55.538Z,1008.35
2019-03-01T06:14:55.524Z,1008.36
2019-03-01T06:15:55.507Z,1008.35
2019-03-01T06:16:55.498Z,1008.36
2019-03-01T06:17:55.465Z,1008.33
2019-03-01T06:18:55.442Z,1008.35
2019-03-01T06:19:55.427Z,1008.39
2019-03-01T06:20:55.406Z,1008.35
2019-03-01T06:21:55.403Z,1008.36
2019-03-01T06:22:55.368Z,1008.34
2019-03-01T06:23:55.919Z,1008.38
2019-03-01T06:24:55.330Z,1008.39
2019-03-01T06:25:55.310Z,1008.43
2019-03-01T06:26:55.286Z,1008.42
2019-03-01T06:27:55.270Z,1008.46
2019-03-01T06:28:55.262Z,1008.51
2019-03-01T06:29:55.249Z,1008.51
2019-03-01T06:30:55.210Z,1008.52
2019-03-01T06:31:55.193Z,1008.53
2019-03-01T06:32:55.166Z,1008.54
2019-03-01T06:33:55.150Z,1008.57
2019-03-01T06:34:55.145Z,1008.55
2019-03-01T06:35:55.111Z,1008.56
2019-03-01T06:36:55.114Z,1008.58
2019-03-01T06:37:55.096Z,1008.61
2019-03-01T06:38:55.051Z,1008.63
2019-03-01T06:39:55.195Z,1008.67
2019-03-01T06:40:55.016Z,1008.69
2019-03-01T06:41:54.994Z,1008.68
2019-03-01T06:42:54.998Z,1008.67
2019-03-01T06:43:54.956Z,1008.68
2019-03-01T06:44:54.945Z,1008.68
2019-03-01T06:45:54.929Z,1008.72
2019-03-01T06:46:55.400Z,1008.68
2019-03-01T06:47:54.894Z,1008.69
2019-03-01T06:48:54.864Z,1008.73
2019-03-01T06:49:54.836Z,1008.70
2019-03-01T06:50:55.417Z,1008.71
2019-03-01T06:51:54.800Z,1008.73
2019-03-01T06:52:54.796Z,1008.77
2019-03-01T06:53:54.765Z,1008.76
2019-03-01T06:54:54.739Z,1008.75
2019-03-01T06:55:56.407Z,1008.74
2019-03-01T06:56:54.702Z,1008.75
2019-03-01T06:57:54.689Z,1008.74
2019-03-01T06:58:54.686Z,1008.79
2019-03-01T06:59:54.646Z,1008.78
2019-03-01T07:00:54.624Z,1008.80
2019-03-01T07:01:54.626Z,1008.78
2019-03-01T07:02:54.645Z,1008.80
2019-03-01T07:03:56.451Z,1008.79
2019-03-01T07:04:54.551Z,1008.78
2019-03-01T07:06:02.983Z,1008.84
2019-03-01T07:06:54.512Z,1008.79
2019-03-01T07:07:54.511Z,1008.84
2019-03-01T07:08:54.472Z,1008.91
2019-03-01T07:09:54.463Z,1008.90
2019-03-01T07:10:55.406Z,1008.91
2019-03-01T07:11:54.415Z,1008.93
2019-03-01T07:12:54.392Z,1008.92
2019-03-01T07:13:55.406Z,1008.93
2019-03-01T07:14:54.904Z,1008.97
2019-03-01T07:15:54.351Z,1008.94
2019-03-01T07:16:54.315Z,1008.93
2019-03-01T07:17:54.294Z,1008.94
2019-03-01T07:18:54.284Z,1008.98
2019-03-01T07:19:54.258Z,1008.99
2019-03-01T07:20:54.235Z,1008.99
2019-03-01T07:21:54.243Z,1009.00
2019-03-01T07:22:54.231Z,1008.99
2019-03-01T07:23:54.977Z,1008.99
2019-03-01T07:24:54.171Z,1008.97
2019-03-01T07:25:54.915Z,1009.00
2019-03-01T07:26:54.185Z,1009.05
2019-03-01T07:27:54.103Z,1009.05
2019-03-01T07:28:54.133Z,1009.05
2019-03-01T07:29:54.060Z,1009.12
2019-03-01T07:30:54.053Z,1009.07
2019-03-01T07:31:54.052Z,1009.09
2019-03-01T07:32:54.005Z,1009.12
2019-03-01T07:33:53.983Z,1009.05
2019-03-01T07:34:54.006Z,1009.11
2019-03-01T07:35:53.942Z,1009.14
2019-03-01T07:36:53.925Z,1009.20
2019-03-01T07:37:53.906Z,1009.20
2019-03-01T07:38:53.883Z,1009.23
2019-03-01T07:39:53.883Z,1009.23
2019-03-01T07:40:53.870Z,1009.26
2019-03-01T07:41:53.828Z,1009.30
2019-03-01T07:42:53.808Z,1009.32
2019-03-01T07:43:53.790Z,1009.35
2019-03-01T07:44:53.768Z,1009.42
2019-03-01T07:45:53.770Z,1009.43
2019-03-01T07:46:54.393Z,1009.46
2019-03-01T07:47:53.713Z,1009.45
2019-03-01T07:48:53.689Z,1009.46
2019-03-01T07:49:53.670Z,1009.47
2019-03-01T07:50:55.278Z,1009.48
2019-03-01T07:51:53.655Z,1009.52
2019-03-01T07:52:53.615Z,1009.51
2019-03-01T07:55:39.894Z,1009.60
2019-03-01T07:56:40.719Z,1009.60
2019-03-01T07:57:39.839Z,1009.61
2019-03-01T07:58:39.841Z,1009.61
2019-03-01T07:59:39.806Z,1009.65
2019-03-01T08:00:39.780Z,1009.57
2019-03-01T08:01:39.758Z,1009.68
2019-03-01T08:02:40.721Z,1009.64
2019-03-01T08:03:39.721Z,1009.67
2019-03-01T08:04:39.718Z,1009.66
2019-03-01T08:05:40.466Z,1009.71
2019-03-01T08:06:39.662Z,1009.74
2019-03-01T08:07:39.645Z,1009.73
2019-03-01T08:08:40.087Z,1009.73
2019-03-01T08:09:41.261Z,1009.75
2019-03-01T08:10:39.611Z,1009.77
2019-03-01T08:11:39.572Z,1009.78
2019-03-01T08:12:42.571Z,1009.81
2019-03-01T08:13:39.525Z,1009.80
2019-03-01T08:14:39.529Z,1009.80
2019-03-01T08:15:40.741Z,1009.83
2019-03-01T08:16:39.464Z,1009.81
2019-03-01T08:17:39.454Z,1009.85
2019-03-01T08:18:40.094Z,1009.85
2019-03-01T08:19:39.407Z,1009.86
2019-03-01T08:20:39.410Z,1009.88
2019-03-01T08:21:42.814Z,1009.86
2019-03-01T08:22:47.866Z,1009.88
2019-03-01T08:25:23.426Z,1009.87
2019-03-01T08:26:21.383Z,1009.90
2019-03-01T08:27:21.366Z,1009.88
2019-03-01T08:28:22.090Z,1009.90
2019-03-01T08:29:21.315Z,1009.94
2019-03-01T08:30:21.290Z,1009.98
2019-03-01T08:31:22.264Z,1009.99
2019-03-01T08:32:21.247Z,1010.03
2019-03-01T08:33:22.917Z,1010.06
2019-03-01T08:34:21.218Z,1010.05
2019-03-01T08:35:21.194Z,1010.10
2019-03-01T08:36:21.168Z,1010.18
2019-03-01T08:37:21.164Z,1010.18
2019-03-01T08:38:21.125Z,1010.17
2019-03-01T08:39:21.105Z,1010.17
2019-03-01T08:40:21.087Z,1010.20
2019-03-01T08:41:21.583Z,1010.21
2019-03-01T08:42:21.053Z,1010.27
2019-03-01T08:43:21.535Z,1010.25
2019-03-01T08:44:23.139Z,1010.34
2019-03-01T08:45:21.080Z,1010.33
2019-03-01T08:46:21.083Z,1010.34
2019-03-01T08:47:24.519Z,1010.32
2019-03-01T08:48:21.024Z,1010.33
2019-03-01T08:49:20.927Z,1010.35
2019-03-01T08:50:20.887Z,1010.33
2019-03-01T08:51:22.789Z,1010.34
2019-03-01T08:52:20.844Z,1010.36
2019-03-01T08:53:20.842Z,1010.40
2019-03-01T08:54:22.814Z,1010.47
2019-03-01T08:55:20.790Z,1010.44
2019-03-01T08:56:26.267Z,1010.43
2019-03-01T08:57:22.525Z,1010.44
2019-03-01T08:58:20.723Z,1010.45
2019-03-01T08:59:20.702Z,1010.50
2019-03-01T09:00:23.236Z,1010.48
2019-03-01T09:01:20.662Z,1010.46
2019-03-01T09:02:20.644Z,1010.43
2019-03-01T09:03:22.221Z,1010.50
2019-03-01T09:04:21.651Z,1010.45
2019-03-01T09:05:20.584Z,1010.50
2019-03-01T09:06:20.562Z,1010.53
2019-03-01T09:07:20.544Z,1010.51
2019-03-01T09:08:20.547Z,1010.54
2019-03-01T09:09:20.894Z,1010.58
2019-03-01T09:10:20.499Z,1010.59
2019-03-01T09:11:20.465Z,1010.60
2019-03-01T09:12:20.446Z,1010.59
2019-03-01T09:13:20.446Z,1010.62
2019-03-01T09:14:22.660Z,1010.61
2019-03-01T09:15:20.380Z,1010.67
2019-03-01T09:16:20.388Z,1010.64
2019-03-01T09:17:20.346Z,1010.63
2019-03-01T09:18:20.327Z,1010.63
2019-03-01T09:19:22.282Z,1010.65
2019-03-01T09:20:20.301Z,1010.66
2019-03-01T09:21:20.276Z,1010.64
2019-03-01T09:22:20.244Z,1010.67
2019-03-01T09:23:25.219Z,1010.71
2019-03-01T09:24:20.295Z,1010.73
2019-03-01T09:25:20.178Z,1010.76
2019-03-01T09:26:20.773Z,1010.81
2019-03-01T09:27:20.142Z,1010.80
2019-03-01T09:28:20.124Z,1010.82
2019-03-01T09:29:20.110Z,1010.83
2019-03-01T09:30:20.081Z,1010.86
2019-03-01T09:31:20.070Z,1010.88
2019-03-01T09:32:20.054Z,1010.89
2019-03-01T09:33:21.193Z,1010.89
2019-03-01T09:34:19.994Z,1010.89
2019-03-01T09:35:19.987Z,1010.88
2019-03-01T09:36:21.388Z,1010.92
2019-03-01T09:37:19.942Z,1010.95
2019-03-01T09:38:19.918Z,1010.94
2019-03-01T09:39:19.904Z,1010.91
2019-03-01T09:40:19.874Z,1011.02
2019-03-01T09:41:19.915Z,1011.02
2019-03-01T09:42:19.867Z,1011.08
2019-03-01T09:43:19.825Z,1011.06
2019-03-01T09:44:19.797Z,1011.09
2019-03-01T09:45:19.782Z,1011.09
2019-03-01T09:46:20.922Z,1011.13
2019-03-01T09:47:19.737Z,1011.09
2019-03-01T09:48:19.716Z,1011.18
2019-03-01T09:49:21.383Z,1011.17
2019-03-01T09:50:19.675Z,1011.15
2019-03-01T09:51:20.476Z,1011.15
2019-03-01T09:52:20.406Z,1011.19
2019-03-01T09:53:19.670Z,1011.18
2019-03-01T09:54:19.605Z,1011.14
2019-03-01T09:55:19.580Z,1011.15
2019-03-01T09:56:19.566Z,1011.17
2019-03-01T09:57:19.536Z,1011.15
2019-03-01T09:58:19.580Z,1011.21
2019-03-01T09:59:19.491Z,1011.22
2019-03-01T10:00:19.481Z,1011.21
2019-03-01T10:01:19.456Z,1011.25
2019-03-01T10:02:19.443Z,1011.27
2019-03-01T10:03:19.417Z,1011.24
2019-03-01T10:04:19.418Z,1011.30
2019-03-01T10:05:19.387Z,1011.36
2019-03-01T10:06:19.356Z,1011.36
2019-03-01T10:07:19.354Z,1011.40
2019-03-01T10:08:19.323Z,1011.43
2019-03-01T10:09:19.321Z,1011.43
2019-03-01T10:10:19.281Z,1011.42
2019-03-01T10:11:19.256Z,1011.45
2019-03-01T10:12:19.233Z,1011.47
2019-03-01T10:13:19.236Z,1011.44
2019-03-01T10:14:20.369Z,1011.44
2019-03-01T10:15:19.177Z,1011.47
2019-03-01T10:16:19.163Z,1011.52
2019-03-01T10:17:19.145Z,1011.55
2019-03-01T10:18:19.120Z,1011.57
2019-03-01T10:19:19.107Z,1011.58
2019-03-01T10:20:19.080Z,1011.61
2019-03-01T10:21:19.063Z,1011.58
2019-03-01T10:22:19.039Z,1011.59
2019-03-01T10:23:19.026Z,1011.60
2019-03-01T10:24:18.998Z,1011.62
2019-03-01T10:25:18.999Z,1011.61
2019-03-01T10:26:18.964Z,1011.61
2019-03-01T10:27:18.946Z,1011.63
2019-03-01T10:28:18.921Z,1011.64
2019-03-01T10:29:18.908Z,1011.66
2019-03-01T10:30:18.877Z,1011.68
2019-03-01T10:31:18.874Z,1011.71
2019-03-01T10:32:18.835Z,1011.70
2019-03-01T10:33:18.818Z,1011.74
2019-03-01T10:34:18.795Z,1011.79
2019-03-01T10:35:18.804Z,1011.78
2019-03-01T10:36:18.766Z,1011.82
2019-03-01T10:37:18.737Z,1011.86
2019-03-01T10:38:18.771Z,1011.89
2019-03-01T10:39:18.701Z,1011.86
2019-03-01T10:40:18.697Z,1011.90
2019-03-01T10:41:18.658Z,1011.86
2019-03-01T10:42:18.651Z,1011.86
2019-03-01T10:43:18.630Z,1011.90
2019-03-01T10:44:18.598Z,1011.87
2019-03-01T10:45:18.580Z,1011.85
2019-03-01T10:46:18.590Z,1011.86
2019-03-01T10:47:18.550Z,1011.89
2019-03-01T10:48:18.537Z,1011.87
2019-03-01T10:49:18.497Z,1011.87
2019-03-01T10:50:18.498Z,1011.90
2019-03-01T10:51:18.461Z,1011.89
2019-03-01T10:52:18.438Z,1011.92
2019-03-01T10:53:18.425Z,1011.91
2019-03-01T10:54:18.402Z,1011.96
2019-03-01T10:55:18.394Z,1011.91
2019-03-01T10:56:18.374Z,1011.94
2019-03-01T10:57:18.337Z,1011.94
2019-03-01T10:58:18.325Z,1011.93
2019-03-01T10:59:18.332Z,1011.95
2019-03-01T11:00:18.274Z,1011.97
2019-03-01T11:01:18.282Z,1012.01
2019-03-01T11:02:18.240Z,1011.99
2019-03-01T11:03:18.241Z,1011.99
2019-03-01T11:04:18.941Z,1012.01
2019-03-01T11:05:18.180Z,1012.00
2019-03-01T11:06:18.164Z,1012.07
2019-03-01T11:07:18.142Z,1012.03
2019-03-01T11:08:18.139Z,1012.06
2019-03-01T11:09:18.102Z,1012.05
2019-03-01T11:10:18.083Z,1012.07
2019-03-01T11:11:18.068Z,1012.06
2019-03-01T11:12:18.040Z,1012.02
2019-03-01T11:13:18.026Z,1012.05
2019-03-01T11:14:18.019Z,1012.08
2019-03-01T11:15:17.987Z,1012.03
2019-03-01T11:16:17.978Z,1012.04
2019-03-01T11:17:17.958Z,1012.01
2019-03-01T11:18:17.924Z,1012.02
2019-03-01T11:19:17.928Z,1012.04
2019-03-01T11:20:17.887Z,1012.05
2019-03-01T11:21:17.861Z,1012.05
2019-03-01T11:22:17.866Z,1012.10
2019-03-01T11:23:17.831Z,1012.07
2019-03-01T11:24:17.820Z,1012.09
2019-03-01T11:25:17.803Z,1012.10
2019-03-01T11:26:17.767Z,1012.07
2019-03-01T11:27:17.749Z,1012.12
2019-03-01T11:28:17.750Z,1012.10
2019-03-01T11:29:19.446Z,1012.08
2019-03-01T11:30:17.691Z,1012.10
2019-03-01T11:31:17.685Z,1012.11
2019-03-01T11:32:17.646Z,1012.17
2019-03-01T11:33:17.630Z,1012.13
2019-03-01T11:34:17.606Z,1012.11
2019-03-01T11:35:17.601Z,1012.13
2019-03-01T11:36:17.583Z,1012.13
2019-03-01T11:37:17.549Z,1012.15
2019-03-01T11:38:17.533Z,1012.16
2019-03-01T11:39:17.512Z,1012.18
2019-03-01T11:40:17.490Z,1012.21
2019-03-01T11:41:17.511Z,1012.20
2019-03-01T11:42:17.466Z,1012.22
2019-03-01T11:43:17.427Z,1012.21
2019-03-01T11:44:17.409Z,1012.24
2019-03-01T11:45:17.992Z,1012.23
2019-03-01T11:46:17.380Z,1012.26
2019-03-01T11:47:17.375Z,1012.24
2019-03-01T11:48:17.334Z,1012.26
2019-03-01T11:49:17.315Z,1012.26
2019-03-01T11:50:17.302Z,1012.28
2019-03-01T11:51:17.273Z,1012.31
2019-03-01T11:52:17.251Z,1012.34
2019-03-01T11:53:17.994Z,1012.33
2019-03-01T11:54:17.216Z,1012.35
2019-03-01T11:55:17.205Z,1012.34
2019-03-01T11:56:17.183Z,1012.39
2019-03-01T11:57:17.153Z,1012.33
2019-03-01T11:58:17.137Z,1012.36
2019-03-01T11:59:17.127Z,1012.37
2019-03-01T12:00:17.093Z,1012.38
2019-03-01T12:01:17.614Z,1012.37
2019-03-01T12:02:17.063Z,1012.37
2019-03-01T12:03:17.034Z,1012.38
2019-03-01T12:04:17.014Z,1012.40
2019-03-01T12:05:17.018Z,1012.39
2019-03-01T12:06:16.970Z,1012.43
2019-03-01T12:07:16.965Z,1012.41
2019-03-01T12:08:16.930Z,1012.42